createdAt,value
2018-09-11T00:00:30.800Z,17.24
2018-09-11T00:02:59.465Z,17.23
2018-09-11T00:05:28.215Z,17.29
2018-09-11T00:07:56.894Z,17.29
2018-09-11T00:10:25.574Z,17.20
2018-09-11T00:12:54.271Z,17.14
2018-09-11T00:15:23.403Z,17.20
2018-09-11T00:17:52.153Z,17.19
2018-09-11T00:20:20.895Z,17.10
2018-09-11T00:22:49.581Z,17.06
2018-09-11T00:25:18.267Z,16.93
2018-09-11T00:27:46.935Z,16.96
2018-09-11T00:30:16.371Z,16.81
2018-09-11T00:32:45.002Z,16.89
2018-09-11T00:35:13.681Z,16.86
2018-09-11T00:37:42.399Z,16.84
2018-09-11T00:40:11.130Z,16.78
2018-09-11T00:42:39.804Z,16.78
2018-09-11T00:45:08.453Z,16.80
2018-09-11T00:47:37.180Z,16.89
2018-09-11T00:50:06.037Z,16.92
2018-09-11T00:52:34.716Z,16.92
2018-09-11T00:55:03.408Z,16.82
2018-09-11T00:57:32.028Z,16.79
2018-09-11T01:00:00.745Z,16.82
2018-09-11T01:02:29.487Z,16.77
2018-09-11T01:04:58.207Z,16.74
2018-09-11T01:07:26.862Z,16.89
2018-09-11T01:09:55.628Z,16.82
2018-09-11T01:12:24.276Z,16.81
2018-09-11T01:14:53.028Z,16.80
2018-09-11T01:17:21.767Z,16.84
2018-09-11T01:19:50.516Z,16.85
2018-09-11T01:22:19.227Z,16.82
2018-09-11T01:24:47.903Z,16.73
2018-09-11T01:27:16.563Z,16.73
2018-09-11T01:29:45.287Z,16.76
2018-09-11T01:32:14.007Z,16.85
2018-09-11T01:34:42.667Z,16.78
2018-09-11T01:37:12.031Z,16.88
2018-09-11T01:39:40.712Z,16.79
2018-09-11T01:42:09.432Z,16.56
2018-09-11T01:44:38.153Z,16.67
2018-09-11T01:47:06.854Z,16.67
2018-09-11T01:49:35.504Z,16.86
2018-09-11T01:52:04.192Z,16.84
2018-09-11T01:54:32.860Z,16.90
2018-09-11T01:57:01.499Z,16.66
2018-09-11T01:59:30.222Z,16.62
2018-09-11T02:01:58.892Z,16.69
2018-09-11T02:04:27.872Z,16.65
2018-09-11T02:06:56.489Z,16.61
2018-09-11T02:09:25.171Z,16.65
2018-09-11T02:11:53.868Z,16.62
2018-09-11T02:14:23.055Z,16.61
2018-09-11T02:16:51.823Z,16.64
2018-09-11T02:19:20.508Z,16.58
2018-09-11T02:21:49.166Z,16.59
2018-09-11T02:24:18.159Z,16.64
2018-09-11T02:26:46.832Z,16.74
2018-09-11T02:29:15.607Z,16.54
2018-09-11T02:31:44.256Z,16.52
2018-09-11T02:34:12.929Z,16.44
2018-09-11T02:36:41.574Z,16.41
2018-09-11T02:39:11.730Z,16.44
2018-09-11T02:41:40.542Z,16.52
2018-09-11T02:44:09.987Z,16.60
2018-09-11T02:46:39.276Z,16.52
2018-09-11T02:49:07.995Z,16.54
2018-09-11T02:51:36.699Z,16.55
2018-09-11T02:54:05.404Z,16.50
2018-09-11T02:56:34.908Z,16.54
2018-09-11T02:59:03.540Z,16.59
2018-09-11T03:01:32.923Z,16.51
2018-09-11T03:04:01.613Z,16.51
2018-09-11T03:06:30.250Z,16.52
2018-09-11T03:08:58.920Z,16.45
2018-09-11T03:11:27.588Z,16.54
2018-09-11T03:13:56.251Z,16.50
2018-09-11T03:16:24.908Z,16.39
2018-09-11T03:18:53.663Z,16.35
2018-09-11T03:21:22.334Z,16.45
2018-09-11T03:23:50.940Z,16.46
2018-09-11T03:26:19.627Z,16.43
2018-09-11T03:28:48.299Z,16.39
2018-09-11T03:31:17.163Z,16.35
2018-09-11T03:33:45.819Z,16.31
2018-09-11T03:36:14.441Z,16.36
2018-09-11T03:38:43.095Z,16.35
2018-09-11T03:41:11.712Z,16.21
2018-09-11T03:43:40.368Z,16.24
2018-09-11T03:46:09.088Z,16.18
2018-09-11T03:48:37.763Z,16.08
2018-09-11T03:51:06.444Z,16.04
2018-09-11T03:53:35.152Z,16.03
2018-09-11T03:56:04.357Z,16.13
2018-09-11T03:58:33.076Z,16.11
2018-09-11T04:01:01.731Z,16.20
2018-09-11T04:03:30.398Z,16.10
2018-09-11T04:05:59.051Z,16.10
2018-09-11T04:08:27.760Z,16.01
2018-09-11T04:11:01.341Z,15.97
2018-09-11T04:13:31.429Z,15.81
2018-09-11T04:16:00.097Z,15.74
2018-09-11T04:18:28.767Z,15.69
2018-09-11T04:20:57.474Z,15.66
2018-09-11T04:23:26.120Z,15.67
2018-09-11T04:25:54.840Z,15.53
2018-09-11T04:28:24.053Z,15.42
2018-09-11T04:30:53.010Z,15.46
2018-09-11T04:33:21.649Z,15.41
2018-09-11T04:35:50.369Z,15.31
2018-09-11T04:38:18.988Z,15.45
2018-09-11T04:40:47.852Z,15.41
2018-09-11T04:43:16.578Z,15.34
2018-09-11T04:45:45.306Z,15.37
2018-09-11T04:48:13.988Z,15.30
2018-09-11T04:50:42.676Z,15.28
2018-09-11T04:53:11.399Z,15.31
2018-09-11T04:55:40.117Z,15.23
2018-09-11T04:58:08.802Z,15.24
2018-09-11T05:00:37.471Z,15.19
2018-09-11T05:03:06.191Z,15.22
2018-09-11T05:05:34.907Z,15.18
2018-09-11T05:08:03.572Z,15.16
2018-09-11T05:10:32.510Z,15.11
2018-09-11T05:13:01.996Z,15.14
2018-09-11T05:15:30.675Z,15.15
2018-09-11T05:18:00.367Z,15.18
2018-09-11T05:20:29.171Z,15.09
2018-09-11T05:22:57.823Z,15.14
2018-09-11T05:25:26.467Z,15.16
2018-09-11T05:27:55.210Z,15.10
2018-09-11T05:30:23.884Z,14.99
2018-09-11T05:32:52.635Z,14.88
2018-09-11T05:35:21.326Z,14.91
2018-09-11T05:37:49.986Z,14.85
2018-09-11T05:40:18.716Z,14.78
2018-09-11T05:42:47.428Z,14.84
2018-09-11T05:45:16.119Z,14.86
2018-09-11T05:47:44.832Z,15.01
2018-09-11T05:50:13.495Z,14.99
2018-09-11T05:52:42.262Z,14.98
2018-09-11T05:55:11.016Z,14.97
2018-09-11T05:57:39.665Z,14.83
2018-09-11T06:00:08.507Z,14.84
2018-09-11T06:02:37.236Z,14.79
2018-09-11T06:05:06.499Z,14.89
2018-09-11T06:07:35.458Z,14.97
2018-09-11T06:10:04.292Z,14.99
2018-09-11T06:12:32.986Z,15.06
2018-09-11T06:15:01.663Z,15.00
2018-09-11T06:17:30.332Z,14.78
2018-09-11T06:19:59.003Z,14.92
2018-09-11T06:22:27.684Z,15.02
2018-09-11T06:24:56.379Z,15.04
2018-09-11T06:27:25.055Z,15.02
2018-09-11T06:29:53.727Z,14.97
2018-09-11T06:32:22.495Z,14.99
2018-09-11T06:34:51.422Z,14.95
2018-09-11T06:37:20.101Z,14.98
2018-09-11T06:39:48.781Z,15.07
2018-09-11T06:42:17.421Z,15.08
2018-09-11T06:44:46.410Z,15.09
2018-09-11T06:47:15.025Z,15.03
2018-09-11T06:49:43.753Z,15.04
2018-09-11T06:52:12.501Z,15.15
2018-09-11T06:54:41.246Z,15.22
2018-09-11T06:57:10.613Z,15.29
2018-09-11T06:59:39.272Z,15.37
2018-09-11T07:02:08.224Z,15.27
2018-09-11T07:04:36.952Z,15.25
2018-09-11T07:07:05.644Z,15.28
2018-09-11T07:09:34.403Z,15.33
2018-09-11T07:12:03.798Z,15.41
2018-09-11T07:14:32.524Z,15.33
2018-09-11T07:17:01.141Z,15.45
2018-09-11T07:19:30.336Z,15.45
2018-09-11T07:21:59.099Z,15.48
2018-09-11T07:24:27.803Z,15.53
2018-09-11T07:26:56.806Z,15.56
2018-09-11T07:29:26.706Z,15.60
2018-09-11T07:31:55.452Z,15.63
2018-09-11T07:34:25.324Z,15.73
2018-09-11T07:36:55.114Z,15.81
2018-09-11T07:39:24.624Z,15.89
2018-09-11T07:41:54.395Z,15.96
2018-09-11T07:44:24.409Z,16.02
2018-09-11T07:46:53.126Z,16.02
2018-09-11T07:49:21.798Z,16.05
2018-09-11T07:51:50.766Z,16.21
2018-09-11T07:54:19.526Z,16.27
2018-09-11T07:56:48.255Z,16.31
2018-09-11T07:59:17.200Z,16.47
2018-09-11T08:01:45.868Z,16.48
2018-09-11T08:04:15.721Z,16.50
2018-09-11T08:06:44.427Z,16.73
2018-09-11T08:09:13.776Z,16.86
2018-09-11T08:11:42.544Z,16.99
2018-09-11T08:14:11.284Z,17.04
2018-09-11T08:16:40.019Z,17.07
2018-09-11T08:19:08.758Z,17.14
2018-09-11T08:21:37.454Z,17.23
2018-09-11T08:24:06.244Z,17.18
2018-09-11T08:26:34.964Z,17.29
2018-09-11T08:29:03.648Z,17.29
2018-09-11T08:31:32.367Z,17.49
2018-09-11T08:34:01.179Z,17.52
2018-09-11T08:36:30.087Z,17.35
2018-09-11T08:38:58.888Z,17.29
2018-09-11T08:41:27.601Z,17.34
2018-09-11T08:43:56.360Z,17.45
2018-09-11T08:46:25.555Z,17.41
2018-09-11T08:48:54.414Z,17.49
2018-09-11T08:51:23.110Z,17.31
2018-09-11T08:53:51.818Z,17.44
2018-09-11T08:56:20.559Z,17.51
2018-09-11T08:58:49.230Z,17.46
2018-09-11T09:01:17.909Z,17.47
2018-09-11T09:03:46.629Z,17.40
2018-09-11T09:06:15.424Z,17.51
2018-09-11T09:08:44.194Z,17.41
2018-09-11T09:11:12.968Z,17.50
2018-09-11T09:13:41.657Z,17.64
2018-09-11T09:16:10.328Z,17.51
2018-09-11T09:18:39.020Z,17.67
2018-09-11T09:21:07.698Z,17.72
2018-09-11T09:23:36.378Z,17.94
2018-09-11T09:26:05.074Z,17.88
2018-09-11T09:28:33.756Z,17.80
2018-09-11T09:31:02.740Z,17.84
2018-09-11T09:33:31.398Z,17.88
2018-09-11T09:36:00.050Z,17.95
2018-09-11T09:38:28.752Z,17.88
2018-09-11T09:40:57.535Z,17.96
2018-09-11T09:43:26.840Z,18.09
2018-09-11T09:45:55.528Z,18.11
2018-09-11T09:48:25.356Z,18.20
2018-09-11T09:50:54.073Z,18.06
2018-09-11T09:53:22.708Z,17.95
2018-09-11T09:55:51.853Z,18.21
2018-09-11T09:58:20.569Z,18.07
2018-09-11T10:00:54.584Z,18.09
2018-09-11T10:03:23.255Z,18.22
2018-09-11T10:05:51.972Z,18.14
2018-09-11T10:08:20.723Z,18.25
2018-09-11T10:10:49.451Z,18.40
2018-09-11T10:13:18.180Z,18.46
2018-09-11T10:15:46.912Z,18.50
2018-09-11T10:18:15.655Z,18.56
2018-09-11T10:20:44.383Z,18.55
2018-09-11T10:23:13.682Z,18.63
2018-09-11T10:25:42.365Z,18.76
2018-09-11T10:28:11.100Z,18.97
2018-09-11T10:30:39.794Z,18.95
2018-09-11T10:33:08.583Z,19.06
2018-09-11T10:35:37.382Z,19.25
2018-09-11T10:38:07.055Z,19.51
2018-09-11T10:40:36.000Z,19.61
2018-09-11T10:43:05.692Z,20.00
2018-09-11T10:45:34.464Z,19.90
2018-09-11T10:48:03.738Z,19.99
2018-09-11T10:50:32.485Z,20.15
2018-09-11T10:53:01.797Z,20.45
2018-09-11T10:55:31.294Z,20.32
2018-09-11T10:58:00.038Z,20.06
2018-09-11T11:00:28.992Z,20.29
2018-09-11T11:02:57.703Z,20.53
2018-09-11T11:05:26.441Z,20.55
2018-09-11T11:07:55.140Z,20.61
2018-09-11T11:10:24.332Z,20.78
2018-09-11T11:12:52.980Z,20.63
2018-09-11T11:15:22.381Z,20.47
2018-09-11T11:17:51.095Z,20.32
2018-09-11T11:20:20.838Z,20.18
2018-09-11T11:22:49.945Z,20.24
2018-09-11T11:25:18.668Z,20.43
2018-09-11T11:27:47.446Z,20.44
2018-09-11T11:30:16.322Z,20.31
2018-09-11T11:32:45.116Z,20.50
2018-09-11T11:35:13.925Z,20.72
2018-09-11T11:37:42.643Z,20.73
2018-09-11T11:40:11.361Z,20.99
2018-09-11T11:42:40.096Z,20.83
2018-09-11T11:45:09.008Z,20.91
2018-09-11T11:47:37.771Z,21.08
2018-09-11T11:50:07.005Z,21.01
2018-09-11T11:52:35.707Z,21.11
2018-09-11T11:55:05.116Z,20.94
2018-09-11T11:57:33.704Z,20.92
2018-09-11T12:00:02.380Z,20.80
2018-09-11T12:02:31.201Z,20.72
2018-09-11T12:04:59.964Z,20.80
2018-09-11T12:07:28.759Z,21.00
2018-09-11T12:09:57.664Z,20.96
2018-09-11T12:12:26.428Z,21.15
2018-09-11T12:14:55.088Z,21.35
2018-09-11T12:17:24.525Z,21.18
2018-09-11T12:19:53.297Z,21.30
2018-09-11T12:22:22.159Z,21.28
2018-09-11T12:24:50.907Z,21.46
2018-09-11T12:27:19.572Z,21.62
2018-09-11T12:29:48.759Z,21.63
2018-09-11T12:32:17.448Z,21.46
2018-09-11T12:34:46.269Z,21.25
2018-09-11T12:37:14.918Z,21.27
2018-09-11T12:39:43.648Z,21.18
2018-09-11T12:42:12.288Z,21.10
2018-09-11T12:44:40.963Z,21.08
2018-09-11T12:47:10.830Z,21.21
2018-09-11T12:49:40.213Z,21.11
2018-09-11T12:52:08.902Z,21.09
2018-09-11T12:54:37.889Z,21.20
2018-09-11T12:57:06.668Z,21.24
2018-09-11T12:59:35.412Z,21.22
2018-09-11T13:02:04.716Z,21.27
2018-09-11T13:04:33.446Z,21.35
2018-09-11T13:07:02.143Z,21.16
2018-09-11T13:09:30.842Z,21.19
2018-09-11T13:11:59.505Z,21.14
2018-09-11T13:14:28.195Z,21.46
2018-09-11T13:16:57.682Z,21.27
2018-09-11T13:19:26.940Z,21.25
2018-09-11T13:21:55.861Z,21.33
2018-09-11T13:24:24.604Z,21.38
2018-09-11T13:26:53.621Z,21.43
2018-09-11T13:29:22.601Z,21.38
2018-09-11T13:31:51.763Z,21.36
2018-09-11T13:34:20.560Z,21.29
2018-09-11T13:36:49.441Z,21.24
2018-09-11T13:39:18.821Z,21.13
2018-09-11T13:41:47.912Z,21.24
2018-09-11T13:44:17.359Z,21.27
2018-09-11T13:46:46.175Z,21.24
2018-09-11T13:49:16.006Z,21.27
2018-09-11T13:51:44.844Z,21.29
2018-09-11T13:54:14.296Z,21.35
2018-09-11T13:56:43.193Z,21.40
2018-09-11T13:59:11.985Z,21.42
2018-09-11T14:01:41.200Z,21.39
2018-09-11T14:04:09.977Z,21.42
2018-09-11T14:06:38.874Z,21.51
2018-09-11T14:09:10.927Z,21.49
2018-09-11T14:11:39.670Z,21.59
2018-09-11T14:14:08.654Z,21.65
2018-09-11T14:16:37.327Z,21.63
2018-09-11T14:19:06.280Z,21.66
2018-09-11T14:21:34.952Z,21.75
2018-09-11T14:24:03.692Z,21.80
2018-09-11T14:26:32.485Z,21.80
2018-09-11T14:29:01.703Z,21.80
2018-09-11T14:31:30.737Z,21.95
2018-09-11T14:33:59.699Z,21.82
2018-09-11T14:36:28.563Z,21.67
2018-09-11T14:38:57.248Z,21.83
2018-09-11T14:41:25.923Z,21.85
2018-09-11T14:43:54.665Z,21.85
2018-09-11T14:46:25.002Z,21.90
2018-09-11T14:48:53.964Z,21.88
2018-09-11T14:51:23.526Z,21.90
2018-09-11T14:53:52.223Z,21.88
2018-09-11T14:56:21.594Z,21.88
2018-09-11T14:58:50.353Z,21.91
2018-09-11T15:01:19.212Z,21.89
2018-09-11T15:03:47.979Z,21.68
2018-09-11T15:06:17.725Z,21.78
2018-09-11T15:08:47.758Z,21.82
2018-09-11T15:11:16.447Z,21.75
2018-09-11T15:13:45.131Z,21.76
2018-09-11T15:16:13.811Z,21.73
2018-09-11T15:18:43.247Z,21.70
2018-09-11T15:21:11.966Z,21.78
2018-09-11T15:23:40.686Z,21.78
2018-09-11T15:26:12.040Z,21.75
2018-09-11T15:28:40.764Z,21.67
2018-09-11T15:31:10.136Z,21.68
2018-09-11T15:33:38.905Z,21.69
2018-09-11T15:36:08.240Z,21.69
2018-09-11T15:38:36.869Z,21.63
2018-09-11T15:41:07.694Z,21.59
2018-09-11T15:43:36.490Z,21.47
2018-09-11T15:46:05.199Z,21.58
2018-09-11T15:48:34.364Z,21.51
2018-09-11T15:51:03.040Z,21.53
2018-09-11T15:53:31.818Z,21.55
2018-09-11T15:56:01.247Z,21.52
2018-09-11T15:58:31.972Z,21.60
2018-09-11T16:01:00.640Z,21.48
2018-09-11T16:03:29.328Z,21.50
2018-09-11T16:05:58.985Z,21.40
2018-09-11T16:08:27.652Z,21.27
2018-09-11T16:10:56.345Z,21.16
2018-09-11T16:13:25.039Z,21.30
2018-09-11T16:15:53.727Z,21.04
2018-09-11T16:18:23.145Z,21.16
2018-09-11T16:20:52.085Z,21.28
2018-09-11T16:23:20.798Z,21.28
2018-09-11T16:25:49.988Z,21.08
2018-09-11T16:28:18.732Z,21.10
2018-09-11T16:30:47.381Z,21.00
2018-09-11T16:33:16.069Z,21.03
2018-09-11T16:35:45.381Z,20.98
2018-09-11T16:38:14.044Z,20.88
2018-09-11T16:40:42.724Z,20.81
2018-09-11T16:43:11.411Z,20.77
2018-09-11T16:45:40.096Z,20.51
2018-09-11T16:48:08.864Z,20.47
2018-09-11T16:50:37.611Z,20.53
2018-09-11T16:53:08.864Z,20.50
2018-09-11T16:55:38.330Z,20.43
2018-09-11T16:58:07.096Z,20.27
2018-09-11T17:00:36.022Z,20.33
2018-09-11T17:03:07.164Z,20.41
2018-09-11T17:05:35.856Z,20.29
2018-09-11T17:08:05.841Z,20.28
2018-09-11T17:10:35.996Z,20.34
2018-09-11T17:13:06.297Z,20.32
2018-09-11T17:15:34.932Z,20.33
2018-09-11T17:18:03.610Z,20.26
2018-09-11T17:20:32.300Z,20.28
2018-09-11T17:23:01.093Z,20.25
2018-09-11T17:25:29.750Z,20.42
2018-09-11T17:27:58.571Z,20.21
2018-09-11T17:30:27.589Z,20.20
2018-09-11T17:32:56.444Z,20.21
2018-09-11T17:35:25.584Z,20.19
2018-09-11T17:37:54.261Z,20.26
2018-09-11T17:40:23.063Z,20.33
2018-09-11T17:42:54.134Z,20.28
2018-09-11T17:45:22.881Z,20.35
2018-09-11T17:47:51.605Z,20.46
2018-09-11T17:50:20.347Z,20.53
2018-09-11T17:52:49.479Z,20.47
2018-09-11T17:55:19.680Z,20.47
2018-09-11T17:57:50.105Z,20.51
2018-09-11T18:00:25.785Z,20.48
2018-09-11T18:02:56.372Z,20.44
2018-09-11T18:05:25.039Z,20.49
2018-09-11T18:07:54.151Z,20.30
2018-09-11T18:10:22.856Z,20.19
2018-09-11T18:12:51.532Z,20.18
2018-09-11T18:15:20.525Z,20.14
2018-09-11T18:17:49.469Z,20.17
2018-09-11T18:20:18.264Z,20.12
2018-09-11T18:22:46.940Z,20.17
2018-09-11T18:25:15.626Z,20.11
2018-09-11T18:27:44.305Z,20.16
2018-09-11T18:30:12.969Z,20.05
2018-09-11T18:32:41.684Z,20.22
2018-09-11T18:35:10.440Z,20.05
2018-09-11T18:37:40.041Z,20.19
2018-09-11T18:40:08.854Z,20.15
2018-09-11T18:42:38.544Z,20.14
2018-09-11T18:45:07.217Z,20.09
2018-09-11T18:47:35.972Z,20.15
2018-09-11T18:50:04.915Z,20.03
2018-09-11T18:52:33.579Z,19.95
2018-09-11T18:55:02.371Z,19.87
2018-09-11T18:57:31.282Z,19.86
2018-09-11T19:00:00.764Z,19.84
2018-09-11T19:02:29.421Z,19.84
2018-09-11T19:04:58.897Z,19.83
2018-09-11T19:07:27.524Z,19.81
2018-09-11T19:09:56.928Z,19.75
2018-09-11T19:12:26.681Z,19.76
2018-09-11T19:14:56.495Z,19.71
2018-09-11T19:17:25.287Z,19.73
2018-09-11T19:19:55.623Z,19.66
2018-09-11T19:22:25.418Z,19.67
2018-09-11T19:24:54.196Z,19.65
2018-09-11T19:27:23.428Z,19.55
2018-09-11T19:29:52.113Z,19.62
2018-09-11T19:32:20.753Z,19.75
2018-09-11T19:34:49.443Z,19.77
2018-09-11T19:37:18.092Z,19.72
2018-09-11T19:39:46.758Z,19.71
2018-09-11T19:42:15.524Z,19.55
2018-09-11T19:44:44.225Z,19.56
2018-09-11T19:47:13.514Z,19.57
2018-09-11T19:49:42.279Z,19.48
2018-09-11T19:52:11.743Z,19.56
2018-09-11T19:54:40.749Z,19.53
2018-09-11T19:57:09.491Z,19.54
2018-09-11T19:59:38.224Z,19.72
2018-09-11T20:02:06.900Z,19.68
2018-09-11T20:04:35.600Z,19.58
2018-09-11T20:07:04.356Z,19.54
2018-09-11T20:09:33.028Z,19.58
2018-09-11T20:12:01.728Z,19.56
2018-09-11T20:14:30.463Z,19.59
2018-09-11T20:16:59.167Z,19.50
2018-09-11T20:19:27.820Z,19.46
2018-09-11T20:21:56.647Z,19.50
2018-09-11T20:24:25.308Z,19.50
2018-09-11T20:26:54.062Z,19.51
2018-09-11T20:29:23.348Z,19.47
2018-09-11T20:31:52.154Z,19.56
2018-09-11T20:34:20.887Z,19.54
2018-09-11T20:36:50.402Z,19.54
2018-09-11T20:39:19.108Z,19.51
2018-09-11T20:41:48.007Z,19.51
2018-09-11T20:44:16.778Z,19.46
2018-09-11T20:46:45.652Z,19.42
2018-09-11T20:49:15.670Z,19.41
2018-09-11T20:51:45.172Z,19.44
2018-09-11T20:54:15.209Z,19.51
2018-09-11T20:56:44.201Z,19.50
2018-09-11T20:59:13.020Z,19.38
2018-09-11T21:01:41.691Z,19.51
2018-09-11T21:04:10.448Z,19.45
2018-09-11T21:06:39.183Z,19.38
2018-09-11T21:09:08.811Z,19.32
2018-09-11T21:11:37.549Z,19.48
2018-09-11T21:14:07.588Z,19.37
2018-09-11T21:16:36.321Z,19.38
2018-09-11T21:19:05.203Z,19.41
2018-09-11T21:21:34.568Z,19.29
2018-09-11T21:24:03.280Z,19.41
2018-09-11T21:26:31.974Z,19.46
2018-09-11T21:29:01.952Z,19.48
2018-09-11T21:31:30.716Z,19.29
2018-09-11T21:33:59.535Z,19.39
2018-09-11T21:36:28.208Z,19.41
2018-09-11T21:38:56.907Z,19.37
2018-09-11T21:41:25.616Z,19.30
2018-09-11T21:43:54.304Z,19.45
2018-09-11T21:46:23.063Z,19.40
2018-09-11T21:48:51.705Z,19.42
2018-09-11T21:51:20.387Z,19.63
2018-09-11T21:53:49.056Z,19.37
2018-09-11T21:56:17.747Z,19.28
2018-09-11T21:58:46.425Z,19.21
2018-09-11T22:01:20.467Z,19.16
2018-09-11T22:03:49.100Z,19.08
2018-09-11T22:06:17.842Z,18.95
2018-09-11T22:08:46.550Z,18.97
2018-09-11T22:11:15.235Z,18.83
2018-09-11T22:13:43.912Z,18.73
2018-09-11T22:16:12.645Z,18.68
2018-09-11T22:18:41.308Z,18.64
2018-09-11T22:21:09.999Z,18.58
2018-09-11T22:23:38.716Z,18.53
2018-09-11T22:26:07.408Z,18.56
2018-09-11T22:28:36.283Z,18.56
2018-09-11T22:31:04.989Z,18.47
2018-09-11T22:33:34.255Z,18.48
2018-09-11T22:36:03.596Z,18.43
2018-09-11T22:38:32.360Z,18.40
2018-09-11T22:41:01.091Z,18.35
2018-09-11T22:43:31.592Z,18.42
2018-09-11T22:46:00.483Z,18.46
2018-09-11T22:48:29.153Z,18.53
2018-09-11T22:50:57.792Z,18.52
2018-09-11T22:53:26.471Z,18.52
2018-09-11T22:55:55.126Z,18.48
2018-09-11T22:58:23.823Z,18.41
2018-09-11T23:00:52.479Z,18.37
2018-09-11T23:03:21.273Z,18.39
2018-09-11T23:05:50.085Z,18.34
2018-09-11T23:08:18.780Z,18.33
2018-09-11T23:10:47.586Z,18.39
2018-09-11T23:13:16.297Z,18.35
2018-09-11T23:15:44.979Z,18.35
2018-09-11T23:18:13.683Z,18.34
2018-09-11T23:20:42.336Z,18.35
2018-09-11T23:23:11.328Z,18.35
2018-09-11T23:25:40.000Z,18.49
2018-09-11T23:28:08.855Z,18.44
2018-09-11T23:30:37.524Z,18.40
2018-09-11T23:33:06.309Z,18.46
2018-09-11T23:35:34.986Z,18.43
2018-09-11T23:38:03.623Z,18.41
2018-09-11T23:40:32.293Z,18.39
2018-09-11T23:43:01.007Z,18.38
2018-09-11T23:45:29.675Z,18.50
2018-09-11T23:47:58.336Z,18.43
2018-09-11T23:50:27.040Z,18.33
2018-09-11T23:52:55.715Z,18.50
2018-09-11T23:55:24.413Z,18.44
2018-09-11T23:57:53.136Z,18.51
